Time;durP1;ratioP1;P1;durP2;ratioP2;P2;SDS_P1;SDS_P2;PMS_P1;PMS_P2;Temp;Humidity;BMP_temperature;BMP_pressure;BME280_temperature;BME280_humidity;BME280_pressure;Samples;Min_cycle;Max_cycle;Signal;HPM_P1;HPM_P2
2023/08/27 00:00:27;;;;;;;8.70;4.20;;;;;;;19.74;100.00;99770.30;178158;1259;46214;-80
2023/08/27 00:04:50;;;;;;;8.90;4.00;;;;;;;19.68;100.00;99769.48;178012;1259;60911;-81
2023/08/27 00:08:53;;;;;;;7.20;3.50;;;;;;;19.70;100.00;99770.86;177454;1259;45987;-81
2023/08/27 00:12:56;;;;;;;10.30;4.20;;;;;;;19.78;100.00;99762.02;177819;1259;46052;-81
2023/08/27 00:17:03;;;;;;;9.70;4.80;;;;;;;19.94;100.00;99759.25;177207;1259;46043;-81
2023/08/27 00:21:06;;;;;;;8.60;5.60;;;;;;;20.17;100.00;99764.42;177823;1263;45986;-81
2023/08/27 00:25:09;;;;;;;8.50;4.90;;;;;;;20.25;100.00;99758.85;177471;1259;58172;-81
2023/08/27 00:29:12;;;;;;;8.50;4.70;;;;;;;20.30;100.00;99772.86;177248;1259;46001;-81
2023/08/27 00:33:15;;;;;;;15.30;4.10;;;;;;;20.35;100.00;99783.15;177118;1259;46082;-82
2023/08/27 00:37:18;;;;;;;7.70;5.50;;;;;;;20.47;100.00;99778.65;177669;1260;45802;-82
2023/08/27 00:41:22;;;;;;;6.00;4.20;;;;;;;20.58;100.00;99776.92;177585;1259;46119;-82
2023/08/27 00:45:26;;;;;;;5.00;3.80;;;;;;;20.61;100.00;99777.95;177711;1259;60774;-82
2023/08/27 00:49:30;;;;;;;7.00;4.40;;;;;;;20.71;100.00;99774.84;177664;1259;46186;-82
2023/08/27 00:53:34;;;;;;;7.60;5.40;;;;;;;20.81;100.00;99768.31;177811;1259;46364;-82
2023/08/27 00:57:39;;;;;;;6.50;4.00;;;;;;;20.87;100.00;99772.45;177949;1259;46490;-82
2023/08/27 01:01:43;;;;;;;6.50;4.20;;;;;;;20.84;100.00;99774.60;177196;1259;44832;-81
2023/08/27 01:05:46;;;;;;;7.10;4.20;;;;;;;20.72;100.00;99771.39;177240;1264;57199;-82
2023/08/27 01:10:00;;;;;;;6.10;4.40;;;;;;;20.29;100.00;99777.14;177642;1259;45997;-81
2023/08/27 01:14:07;;;;;;;6.40;4.90;;;;;;;19.89;100.00;99781.14;177114;1259;46615;-82
2023/08/27 01:18:15;;;;;;;6.70;4.60;;;;;;;19.68;100.00;99776.61;177719;1259;46052;-82
2023/08/27 01:22:18;;;;;;;6.00;3.90;;;;;;;19.59;100.00;99777.84;177677;1263;46007;-82
2023/08/27 01:26:46;;;;;;;9.10;4.00;;;;;;;19.47;100.00;99785.20;178005;1259;59711;-81
2023/08/27 01:30:55;;;;;;;4.40;4.00;;;;;;;19.40;100.00;99787.59;178185;1259;46077;-81
2023/08/27 01:34:59;;;;;;;9.10;4.60;;;;;;;19.35;100.00;99800.98;178508;1260;46130;-82
2023/08/27 01:39:05;;;;;;;5.50;4.40;;;;;;;19.26;100.00;99808.84;178086;1259;45991;-81
2023/08/27 01:43:08;;;;;;;5.40;3.90;;;;;;;19.18;100.00;99796.80;177222;1259;46345;-81
2023/08/27 01:47:12;;;;;;;8.70;5.10;;;;;;;19.15;100.00;99782.63;177014;1260;57953;-80
2023/08/27 01:51:15;;;;;;;5.60;3.60;;;;;;;19.19;100.00;99776.57;177323;1259;45768;-81
2023/08/27 01:55:19;;;;;;;6.50;4.70;;;;;;;19.28;100.00;99777.41;176632;1260;46097;-82
2023/08/27 01:59:22;;;;;;;7.10;4.50;;;;;;;19.34;100.00;99781.19;177138;1261;46299;-82
2023/08/27 02:03:25;;;;;;;6.60;4.30;;;;;;;19.35;100.00;99778.92;177472;1259;44637;-81
2023/08/27 02:07:29;;;;;;;5.60;3.20;;;;;;;19.34;100.00;99773.52;177794;1264;58238;-81
2023/08/27 02:11:32;;;;;;;8.50;5.00;;;;;;;19.36;100.00;99766.52;177305;1260;46130;-81
2023/08/27 02:15:35;;;;;;;11.70;5.30;;;;;;;19.43;100.00;99763.67;177669;1259;46142;-81
2023/08/27 02:19:38;;;;;;;16.80;4.90;;;;;;;19.49;100.00;99762.52;177383;1259;45895;-81
2023/08/27 02:23:41;;;;;;;6.90;3.90;;;;;;;19.52;100.00;99765.80;177918;1259;46242;-81
2023/08/27 02:27:44;;;;;;;13.40;5.30;;;;;;;19.61;100.00;99764.33;178053;1259;58279;-80
2023/08/27 02:31:47;;;;;;;6.90;4.90;;;;;;;19.62;100.00;99765.23;177640;1259;46756;-82
2023/08/27 02:35:50;;;;;;;10.50;5.60;;;;;;;19.51;100.00;99782.44;177287;1259;45996;-81
2023/08/27 02:39:54;;;;;;;7.40;4.10;;;;;;;19.54;100.00;99787.73;177451;1263;46233;-81
2023/08/27 02:43:57;;;;;;;6.20;4.70;;;;;;;19.62;100.00;99802.27;177495;1260;46056;-81
2023/08/27 02:48:00;;;;;;;9.10;5.90;;;;;;;19.71;100.00;99799.88;177808;1259;57890;-81
2023/08/27 02:52:03;;;;;;;7.80;5.50;;;;;;;19.75;100.00;99780.67;177789;1258;46015;-81
2023/08/27 02:56:08;;;;;;;8.90;5.30;;;;;;;19.86;100.00;99767.33;178805;1259;46032;-81
2023/08/27 03:00:12;;;;;;;5.30;4.40;;;;;;;19.99;100.00;99774.19;178012;1259;45850;-81
2023/08/27 03:04:16;;;;;;;7.80;4.80;;;;;;;19.90;100.00;99764.00;177800;1259;46802;-82
2023/08/27 03:08:19;;;;;;;7.40;4.80;;;;;;;19.82;100.00;99765.60;177842;1260;57939;-81
2023/08/27 03:12:22;;;;;;;8.50;5.30;;;;;;;19.83;100.00;99771.84;176867;1262;45999;-81
2023/08/27 03:16:25;;;;;;;8.90;4.80;;;;;;;19.85;100.00;99774.13;177955;1259;46038;-81
2023/08/27 03:20:29;;;;;;;7.90;4.60;;;;;;;19.83;100.00;99770.64;177739;1259;45890;-81
2023/08/27 03:24:32;;;;;;;5.70;4.60;;;;;;;19.69;100.00;99768.98;177589;1259;46114;-82
2023/08/27 03:28:35;;;;;;;8.70;5.40;;;;;;;19.59;100.00;99765.76;177409;1260;59350;-82
2023/08/27 03:32:38;;;;;;;4.90;4.30;;;;;;;19.58;100.00;99764.68;177699;1260;46195;-82
2023/08/27 03:36:42;;;;;;;5.50;4.00;;;;;;;19.47;100.00;99763.00;177843;1259;46003;-82
2023/08/27 03:40:52;;;;;;;8.80;5.60;;;;;;;19.38;100.00;99763.94;177463;1259;45996;-81
2023/08/27 03:44:56;;;;;;;6.00;4.50;;;;;;;19.41;100.00;99771.09;176752;1261;46108;-81
2023/08/27 03:49:00;;;;;;;5.80;3.70;;;;;;;19.46;100.00;99749.49;177144;1260;59211;-81
2023/08/27 03:53:04;;;;;;;9.90;3.80;;;;;;;19.47;100.00;99734.28;176959;1259;45929;-81
2023/08/27 03:57:08;;;;;;;12.40;4.60;;;;;;;19.47;100.00;99730.39;177854;1259;45857;-82
2023/08/27 04:01:11;;;;;;;7.60;4.80;;;;;;;19.46;100.00;99724.58;177441;1262;46114;-81
2023/08/27 04:05:14;;;;;;;7.30;4.70;;;;;;;19.47;100.00;99722.04;177511;1260;46266;-82
2023/08/27 04:09:17;;;;;;;13.00;4.80;;;;;;;19.56;100.00;99708.27;177197;1260;57156;-82
2023/08/27 04:13:21;;;;;;;5.40;4.60;;;;;;;19.67;100.00;99716.75;177297;1263;46188;-82
2023/08/27 04:17:24;;;;;;;6.00;4.20;;;;;;;19.77;100.00;99724.62;177237;1260;46089;-82
2023/08/27 04:21:27;;;;;;;9.50;4.80;;;;;;;19.84;100.00;99726.63;177344;1262;46138;-81
2023/08/27 04:25:30;;;;;;;11.00;5.60;;;;;;;19.90;100.00;99719.37;178562;1259;44853;-82
2023/08/27 04:29:33;;;;;;;5.70;4.50;;;;;;;19.95;100.00;99725.30;178890;1260;59508;-83
2023/08/27 04:33:37;;;;;;;24.90;5.60;;;;;;;19.98;100.00;99727.30;178187;1260;46130;-83
2023/08/27 04:37:40;;;;;;;13.10;4.70;;;;;;;19.95;100.00;99726.95;178956;1258;46007;-83
2023/08/27 04:41:43;;;;;;;13.00;5.10;;;;;;;19.91;100.00;99727.64;179129;1261;46036;-83
2023/08/27 04:45:47;;;;;;;10.30;4.40;;;;;;;19.93;100.00;99728.56;179276;1260;43949;-82
2023/08/27 04:49:51;;;;;;;7.20;4.30;;;;;;;20.00;100.00;99725.85;178391;1259;58731;-82
2023/08/27 04:53:54;;;;;;;8.00;4.50;;;;;;;20.10;100.00;99730.96;178495;1263;46049;-82
2023/08/27 04:57:58;;;;;;;6.40;4.30;;;;;;;20.19;100.00;99727.86;178458;1263;46119;-82
2023/08/27 05:02:02;;;;;;;22.60;5.40;;;;;;;20.19;100.00;99725.20;178163;1262;46108;-83
2023/08/27 05:06:06;;;;;;;6.20;4.00;;;;;;;20.26;100.00;99729.64;178464;1259;46101;-82
2023/08/27 05:10:10;;;;;;;7.10;5.90;;;;;;;20.43;100.00;99743.73;179029;1260;59264;-82
2023/08/27 05:14:13;;;;;;;9.10;5.20;;;;;;;20.56;100.00;99727.26;178684;1259;46488;-83
2023/08/27 05:18:17;;;;;;;6.00;3.70;;;;;;;20.47;100.00;99717.89;178937;1259;46094;-82
2023/08/27 05:22:20;;;;;;;6.50;4.40;;;;;;;20.37;100.00;99718.86;178633;1259;46227;-82
2023/08/27 05:26:24;;;;;;;9.50;6.20;;;;;;;20.36;100.00;99712.63;179280;1262;44074;-83
2023/08/27 05:30:28;;;;;;;7.70;5.20;;;;;;;20.43;100.00;99712.61;178503;1261;59899;-82
2023/08/27 05:34:32;;;;;;;9.00;5.40;;;;;;;20.40;100.00;99722.16;179497;1260;46090;-81
2023/08/27 05:38:35;;;;;;;6.00;4.00;;;;;;;20.34;100.00;99722.56;178840;1260;44663;-82
2023/08/27 05:42:38;;;;;;;7.60;5.40;;;;;;;20.41;100.00;99715.10;178139;1262;46013;-82
2023/08/27 05:46:42;;;;;;;9.10;5.40;;;;;;;20.49;100.00;99716.73;179006;1262;44188;-82
2023/08/27 05:50:45;;;;;;;4.20;3.80;;;;;;;20.51;100.00;99725.41;178453;1260;58330;-82
2023/08/27 05:54:48;;;;;;;7.10;3.70;;;;;;;20.61;100.00;99727.89;178840;1261;46126;-82
2023/08/27 05:58:52;;;;;;;14.00;5.70;;;;;;;20.68;100.00;99710.07;178891;1263;45894;-82
2023/08/27 06:02:55;;;;;;;7.30;4.50;;;;;;;20.63;100.00;99701.16;178858;1261;45917;-82
2023/08/27 06:06:58;;;;;;;7.70;4.00;;;;;;;20.56;100.00;99702.27;178189;1264;45987;-82
2023/08/27 06:11:04;;;;;;;6.40;4.60;;;;;;;20.65;100.00;99709.35;178486;1261;59548;-81
2023/08/27 06:15:07;;;;;;;7.60;4.90;;;;;;;20.75;100.00;99694.03;178391;1262;45978;-82
2023/08/27 06:19:11;;;;;;;5.10;4.40;;;;;;;20.77;100.00;99679.30;178517;1261;44304;-83
2023/08/27 06:23:14;;;;;;;10.80;4.30;;;;;;;21.00;100.00;99672.38;178597;1260;45992;-81
2023/08/27 06:27:18;;;;;;;5.80;4.70;;;;;;;21.22;100.00;99656.84;178588;1261;45974;-81
2023/08/27 06:31:21;;;;;;;10.00;5.90;;;;;;;21.27;100.00;99649.17;178809;1264;58128;-82
2023/08/27 06:35:28;;;;;;;5.40;4.40;;;;;;;21.41;100.00;99644.70;178876;1265;46103;-82
2023/08/27 06:39:31;;;;;;;10.50;4.70;;;;;;;21.63;100.00;99653.42;178437;1260;46239;-82
2023/08/27 06:43:34;;;;;;;7.10;4.70;;;;;;;21.90;100.00;99655.83;179311;1261;46095;-82
2023/08/27 06:47:38;;;;;;;8.30;4.70;;;;;;;22.32;100.00;99641.70;178964;1261;46116;-82
2023/08/27 06:51:41;;;;;;;7.80;4.80;;;;;;;22.75;100.00;99618.62;178998;1260;59287;-81
2023/08/27 06:55:44;;;;;;;7.40;5.40;;;;;;;23.02;100.00;99624.45;179524;1259;45972;-82
2023/08/27 06:59:48;;;;;;;5.00;4.20;;;;;;;23.24;99.82;99614.64;179914;1259;44353;-82
2023/08/27 07:03:51;;;;;;;6.00;5.40;;;;;;;23.42;99.23;99617.61;179798;1259;45750;-82
2023/08/27 07:07:55;;;;;;;5.50;4.70;;;;;;;23.61;98.36;99620.21;179245;1259;46064;-82
2023/08/27 07:11:59;;;;;;;7.30;3.60;;;;;;;23.67;96.40;99605.83;179413;1260;59515;-82
2023/08/27 07:16:03;;;;;;;4.70;4.30;;;;;;;23.69;95.66;99617.40;179062;1259;44561;-83
2023/08/27 07:20:07;;;;;;;7.30;4.10;;;;;;;23.74;94.95;99609.61;179215;1260;45936;-82
2023/08/27 07:24:13;;;;;;;5.90;4.70;;;;;;;23.66;94.32;99608.75;179844;1259;45888;-82
2023/08/27 07:28:17;;;;;;;5.40;4.20;;;;;;;23.62;96.06;99613.08;179388;1259;46035;-82
2023/08/27 07:32:21;;;;;;;5.20;4.30;;;;;;;23.54;98.14;99625.28;179261;1260;58266;-82
2023/08/27 07:36:24;;;;;;;5.00;3.90;;;;;;;23.28;96.67;99625.43;179512;1264;45123;-82
2023/08/27 07:40:34;;;;;;;11.70;5.10;;;;;;;23.05;99.34;99639.06;179148;1262;46016;-82
2023/08/27 07:44:38;;;;;;;10.20;5.80;;;;;;;22.91;100.00;99651.76;178835;1262;46097;-82
2023/08/27 07:48:42;;;;;;;11.70;5.00;;;;;;;22.89;100.00;99662.38;179151;1265;46125;-82
2023/08/27 07:52:45;;;;;;;9.80;5.00;;;;;;;22.83;100.00;99663.19;178454;1262;57941;-82
2023/08/27 07:56:48;;;;;;;8.70;5.00;;;;;;;22.83;100.00;99667.36;178828;1260;46085;-82
2023/08/27 08:01:02;;;;;;;7.00;5.70;;;;;;;22.90;100.00;99669.91;178592;1263;46134;-82
2023/08/27 08:05:07;;;;;;;7.50;5.30;;;;;;;22.98;100.00;99659.48;178368;1261;46058;-82
2023/08/27 08:09:11;;;;;;;7.70;7.00;;;;;;;23.19;100.00;99647.31;179513;1260;43978;-82
2023/08/27 08:13:14;;;;;;;5.50;5.00;;;;;;;23.33;100.00;99664.30;178926;1262;58232;-82
2023/08/27 08:17:18;;;;;;;7.40;4.30;;;;;;;23.40;99.99;99668.31;178692;1261;46147;-82
2023/08/27 08:21:28;;;;;;;7.00;5.70;;;;;;;23.10;100.00;99662.38;179292;1262;45745;-82
2023/08/27 08:25:33;;;;;;;6.20;5.30;;;;;;;22.84;100.00;99655.99;178685;1259;46037;-83
2023/08/27 08:29:36;;;;;;;9.40;5.70;;;;;;;22.71;100.00;99653.32;178798;1264;45891;-83
2023/08/27 08:33:40;;;;;;;9.70;6.20;;;;;;;22.75;100.00;99653.23;178250;1260;59614;-83
2023/08/27 08:37:44;;;;;;;9.40;6.50;;;;;;;22.54;100.00;99648.44;178529;1261;46120;-83
2023/08/27 08:42:10;;;;;;;10.10;6.10;;;;;;;22.52;100.00;99643.74;178194;1260;45956;-83
2023/08/27 08:46:18;;;;;;;5.90;4.60;;;;;;;22.34;100.00;99655.52;178777;1260;46059;-83
2023/08/27 08:50:22;;;;;;;7.70;4.70;;;;;;;22.36;100.00;99655.91;178215;1260;46028;-83
2023/08/27 08:54:28;;;;;;;6.30;5.00;;;;;;;22.22;100.00;99670.10;178435;1263;58218;-83
2023/08/27 08:58:37;;;;;;;7.40;6.00;;;;;;;22.20;100.00;99677.77;178663;1261;46139;-83
2023/08/27 09:02:42;;;;;;;13.10;6.30;;;;;;;21.91;100.00;99665.19;178377;1262;46067;-83
2023/08/27 09:06:46;;;;;;;10.50;6.30;;;;;;;21.73;100.00;99654.14;178487;1260;46136;-82
2023/08/27 09:10:50;;;;;;;6.30;5.70;;;;;;;21.63;100.00;99648.92;178114;1262;46496;-83
2023/08/27 09:14:54;;;;;;;10.10;4.90;;;;;;;21.64;100.00;99647.23;178086;1260;59565;-83
2023/08/27 09:18:57;;;;;;;10.00;4.80;;;;;;;21.72;100.00;99639.20;178961;1260;44361;-83
2023/08/27 09:23:01;;;;;;;7.00;5.10;;;;;;;21.88;100.00;99641.67;178394;1264;46030;-83
2023/08/27 09:27:04;;;;;;;7.40;5.60;;;;;;;22.00;100.00;99645.78;178628;1262;44118;-83
2023/08/27 09:31:11;;;;;;;6.50;5.50;;;;;;;22.04;100.00;99638.13;178914;1260;46066;-83
2023/08/27 09:35:14;;;;;;;8.30;4.80;;;;;;;22.04;100.00;99631.55;178998;1261;58633;-83
2023/08/27 09:39:18;;;;;;;10.10;6.00;;;;;;;22.11;100.00;99622.05;178588;1260;210560;-83
2023/08/27 09:43:27;;;;;;;6.80;5.50;;;;;;;22.22;100.00;99627.40;178464;1263;46114;-83
2023/08/27 09:47:36;;;;;;;11.80;6.30;;;;;;;22.33;100.00;99633.39;178543;1261;45813;-83
2023/08/27 09:51:40;;;;;;;7.20;5.30;;;;;;;22.36;100.00;99634.70;178488;1261;44924;-83
2023/08/27 09:55:43;;;;;;;8.20;5.40;;;;;;;22.38;100.00;99639.10;178692;1263;58421;-83
2023/08/27 09:59:47;;;;;;;5.80;4.20;;;;;;;22.41;100.00;99640.82;178577;1261;46012;-83
2023/08/27 10:03:53;;;;;;;6.10;4.90;;;;;;;22.34;100.00;99649.52;178764;1260;44614;-83
2023/08/27 10:08:02;;;;;;;5.20;3.80;;;;;;;22.30;100.00;99651.77;178599;1265;46578;-83
2023/08/27 10:12:09;;;;;;;5.40;4.80;;;;;;;22.23;100.00;99648.02;178564;1263;45936;-83
2023/08/27 10:16:14;;;;;;;5.50;4.00;;;;;;;22.24;100.00;99649.67;178814;1264;57961;-83
2023/08/27 10:20:19;;;;;;;7.00;4.70;;;;;;;22.24;100.00;99639.75;178623;1260;43849;-83
2023/08/27 10:24:23;;;;;;;8.80;4.80;;;;;;;22.25;100.00;99629.58;178896;1261;46220;-83
2023/08/27 10:28:27;;;;;;;5.00;4.30;;;;;;;22.34;100.00;99625.30;178909;1261;45978;-83
2023/08/27 10:32:32;;;;;;;8.40;4.90;;;;;;;22.41;100.00;99616.16;179129;1262;46143;-82
2023/08/27 10:36:40;;;;;;;11.90;3.90;;;;;;;22.55;100.00;99601.02;178542;1259;59270;-83
2023/08/27 10:40:45;;;;;;;5.70;3.90;;;;;;;22.76;100.00;99593.38;178662;1261;46246;-82
2023/08/27 10:45:17;;;;;;;6.70;4.60;;;;;;;22.97;100.00;99602.80;178636;1263;46091;-83
2023/08/27 10:49:22;;;;;;;12.40;5.20;;;;;;;23.12;100.00;99601.68;178786;1264;46169;-83
2023/08/27 10:53:38;;;;;;;6.60;5.40;;;;;;;23.18;100.00;99591.40;179080;1264;46036;-83
2023/08/27 10:57:41;;;;;;;6.20;5.20;;;;;;;23.22;100.00;99593.20;178890;1264;58117;-83
2023/08/27 11:01:54;;;;;;;5.00;4.10;;;;;;;23.29;100.00;99588.84;178925;1259;45918;-83
2023/08/27 11:06:12;;;;;;;5.10;4.10;;;;;;;23.30;100.00;99580.27;178798;1260;45131;-83
2023/08/27 11:10:16;;;;;;;8.20;4.30;;;;;;;23.31;100.00;99571.38;178719;1260;46155;-83
2023/08/27 11:14:22;;;;;;;5.10;4.60;;;;;;;23.41;100.00;99568.63;178761;1263;44081;-83
2023/08/27 11:18:26;;;;;;;7.90;4.40;;;;;;;23.51;100.00;99558.76;179054;1260;57919;-83
2023/08/27 11:22:30;;;;;;;5.10;4.60;;;;;;;23.61;100.00;99542.84;178360;1260;46214;-83
2023/08/27 11:26:34;;;;;;;10.40;5.10;;;;;;;23.75;100.00;99550.20;179095;1260;46046;-83
2023/08/27 11:30:38;;;;;;;4.90;4.40;;;;;;;23.79;99.85;99564.73;178798;1260;46032;-83
2023/08/27 11:34:44;;;;;;;10.30;5.00;;;;;;;23.78;100.00;99561.94;179047;1261;44899;-83
2023/08/27 11:38:48;;;;;;;8.10;4.80;;;;;;;23.76;100.00;99560.25;178515;1259;58292;-83
2023/08/27 11:42:54;;;;;;;12.70;4.60;;;;;;;23.77;100.00;99547.23;178775;1260;46207;-83
2023/08/27 11:47:04;;;;;;;5.80;4.90;;;;;;;23.76;99.86;99550.48;179130;1264;46116;-83
2023/08/27 11:51:09;;;;;;;6.90;5.00;;;;;;;23.73;100.00;99544.63;178773;1261;44806;-83
2023/08/27 11:55:13;;;;;;;6.10;5.10;;;;;;;23.72;100.00;99539.44;178480;1261;44519;-84
2023/08/27 11:59:17;;;;;;;6.70;4.80;;;;;;;23.65;100.00;99550.14;179021;1260;58127;-82
2023/08/27 12:03:21;;;;;;;5.60;4.90;;;;;;;23.49;100.00;99549.97;178698;1260;45995;-83
2023/08/27 12:07:27;;;;;;;8.90;5.70;;;;;;;23.33;100.00;99531.40;178607;1260;46051;-83
2023/08/27 12:11:33;;;;;;;6.10;5.50;;;;;;;23.29;100.00;99530.02;178697;1261;46054;-83
2023/08/27 12:15:37;;;;;;;;;;;;;;;23.20;100.00;99539.36;178635;1260;45999;-84
2023/08/27 12:19:42;;;;;;;7.90;5.20;;;;;;;23.11;100.00;99544.37;178482;1260;57999;-83
2023/08/27 12:23:52;;;;;;;6.20;4.90;;;;;;;22.98;100.00;99544.44;178421;1261;46172;-83
2023/08/27 12:27:56;;;;;;;5.10;4.60;;;;;;;22.77;100.00;99542.58;178651;1261;46129;-83
2023/08/27 12:32:14;;;;;;;10.10;5.90;;;;;;;22.56;100.00;99539.08;178541;1261;44137;-83
2023/08/27 12:36:17;;;;;;;6.20;5.50;;;;;;;22.49;100.00;99536.63;178629;1260;46057;-83
2023/08/27 12:40:21;;;;;;;8.30;4.90;;;;;;;22.39;100.00;99532.85;178875;1264;60588;-81
2023/08/27 12:44:25;;;;;;;14.60;6.60;;;;;;;22.24;100.00;99534.83;179389;1260;46138;-82
2023/08/27 12:48:29;;;;;;;5.80;5.20;;;;;;;22.10;100.00;99540.67;179336;1260;46119;-82
2023/08/27 12:52:32;;;;;;;9.60;4.40;;;;;;;21.94;100.00;99554.05;178755;1260;44802;-81
2023/08/27 12:56:37;;;;;;;6.10;4.70;;;;;;;21.54;100.00;99565.87;178256;1261;46085;-81
2023/08/27 13:00:40;;;;;;;8.30;5.30;;;;;;;21.27;100.00;99558.84;178660;1264;59308;-82
2023/08/27 13:04:44;;;;;;;7.50;5.60;;;;;;;21.12;100.00;99545.70;178837;1264;46227;-82
2023/08/27 13:08:48;;;;;;;7.30;6.00;;;;;;;21.06;100.00;99543.13;178489;1260;45109;-82
2023/08/27 13:12:51;;;;;;;6.10;4.80;;;;;;;21.03;100.00;99544.69;178104;1261;46060;-82
2023/08/27 13:16:55;;;;;;;5.70;4.50;;;;;;;21.02;100.00;99539.15;178367;1260;46015;-81
2023/08/27 13:20:59;;;;;;;8.40;5.00;;;;;;;21.02;100.00;99538.91;178118;1260;58017;-82
2023/08/27 13:25:04;;;;;;;5.90;5.00;;;;;;;21.02;100.00;99536.99;178373;1260;46253;-81
2023/08/27 13:29:07;;;;;;;7.70;6.10;;;;;;;20.91;100.00;99534.78;177882;1261;44480;-82
2023/08/27 13:33:11;;;;;;;5.50;5.00;;;;;;;20.89;100.00;99518.41;178098;1260;46063;-82
2023/08/27 13:37:15;;;;;;;6.40;5.00;;;;;;;20.89;100.00;99507.38;178505;1260;45938;-82
2023/08/27 13:41:18;;;;;;;5.80;5.20;;;;;;;20.84;100.00;99511.77;178379;1260;59434;-82
2023/08/27 13:45:22;;;;;;;9.60;4.90;;;;;;;20.81;100.00;99504.48;178287;1261;45364;-82
2023/08/27 13:49:28;;;;;;;9.90;6.40;;;;;;;20.80;100.00;99504.69;178337;1261;46000;-82
2023/08/27 13:53:32;;;;;;;6.20;5.50;;;;;;;20.90;100.00;99508.34;177892;1260;44828;-82
2023/08/27 13:57:36;;;;;;;6.10;5.50;;;;;;;20.96;100.00;99513.96;177967;1260;46023;-82
2023/08/27 14:01:40;;;;;;;7.10;6.00;;;;;;;21.02;100.00;99520.23;178539;1260;58903;-82
2023/08/27 14:05:43;;;;;;;7.20;5.50;;;;;;;21.07;100.00;99526.75;178379;1260;46023;-82
2023/08/27 14:09:47;;;;;;;10.50;5.70;;;;;;;20.99;100.00;99530.98;178246;1262;45964;-82
2023/08/27 14:13:51;;;;;;;8.20;5.50;;;;;;;20.87;100.00;99528.60;178372;1260;45981;-82
2023/08/27 14:17:54;;;;;;;6.20;5.10;;;;;;;20.83;100.00;99521.41;177974;1264;46215;-82
2023/08/27 14:22:00;;;;;;;6.80;5.30;;;;;;;20.88;100.00;99520.66;178308;1264;59656;-82
2023/08/27 14:26:03;;;;;;;9.00;6.00;;;;;;;20.91;100.00;99519.61;178102;1264;44120;-82
2023/08/27 14:30:07;;;;;;;10.30;6.30;;;;;;;20.97;100.00;99520.75;178189;1261;46207;-83
2023/08/27 14:34:11;;;;;;;6.30;4.80;;;;;;;21.11;100.00;99518.00;178507;1260;45972;-83
2023/08/27 14:38:15;;;;;;;7.90;5.10;;;;;;;21.23;100.00;99514.83;179159;1260;44206;-82
2023/08/27 14:42:19;;;;;;;7.10;5.80;;;;;;;21.25;100.00;99513.02;178353;1260;58137;-83
2023/08/27 14:46:22;;;;;;;7.40;5.40;;;;;;;21.23;100.00;99516.08;178768;1260;46074;-83
2023/08/27 14:50:27;;;;;;;8.10;5.50;;;;;;;21.20;100.00;99523.20;178564;1260;46104;-83
2023/08/27 14:54:31;;;;;;;5.90;5.10;;;;;;;21.21;100.00;99515.88;178462;1261;44764;-82
2023/08/27 14:58:34;;;;;;;8.10;6.10;;;;;;;21.22;100.00;99502.68;178341;1261;46349;-82
2023/08/27 15:02:38;;;;;;;11.10;5.70;;;;;;;21.14;100.00;99489.73;178794;1260;59627;-82
2023/08/27 15:06:42;;;;;;;6.50;5.20;;;;;;;20.94;100.00;99492.32;178410;1260;46057;-82
2023/08/27 15:10:45;;;;;;;7.00;5.60;;;;;;;20.80;100.00;99497.32;178306;1260;44850;-82
2023/08/27 15:14:49;;;;;;;8.10;5.80;;;;;;;20.66;100.00;99495.94;178662;1260;46005;-82
2023/08/27 15:18:53;;;;;;;6.80;6.00;;;;;;;20.52;100.00;99505.83;178249;1261;46015;-82
2023/08/27 15:22:56;;;;;;;10.50;7.20;;;;;;;20.37;100.00;99519.63;178111;1260;57932;-82
2023/08/27 15:27:00;;;;;;;9.60;6.80;;;;;;;20.22;100.00;99543.95;178083;1261;45333;-82
2023/08/27 15:31:04;;;;;;;10.30;8.50;;;;;;;20.08;100.00;99536.63;177798;1260;45949;-82
2023/08/27 15:35:08;;;;;;;7.60;6.80;;;;;;;20.07;100.00;99522.27;178075;1259;45930;-82
2023/08/27 15:39:12;;;;;;;7.60;6.50;;;;;;;20.02;100.00;99529.08;176899;1260;47456;-82
2023/08/27 15:43:30;;;;;;;7.30;6.50;;;;;;;19.94;100.00;99522.54;177409;1260;58079;-83
2023/08/27 15:47:34;;;;;;;7.70;5.80;;;;;;;20.03;100.00;99504.90;178060;1260;46045;-81
2023/08/27 15:51:39;;;;;;;8.60;6.30;;;;;;;20.10;100.00;99502.87;177225;1263;46213;-81
2023/08/27 15:55:43;;;;;;;10.20;6.20;;;;;;;20.13;100.00;99497.15;177039;1260;46397;-81
2023/08/27 15:59:47;;;;;;;10.80;7.00;;;;;;;20.17;100.00;99495.80;176858;1260;46090;-81
2023/08/27 16:03:50;;;;;;;12.80;5.90;;;;;;;20.14;100.00;99488.41;178198;1259;57941;-81
2023/08/27 16:07:53;;;;;;;7.90;5.80;;;;;;;20.11;100.00;99486.45;177521;1261;46265;-81
2023/08/27 16:11:57;;;;;;;7.90;6.90;;;;;;;20.09;100.00;99484.14;178121;1260;46039;-81
2023/08/27 16:16:01;;;;;;;8.20;6.70;;;;;;;20.08;100.00;99490.79;177909;1264;46239;-81
2023/08/27 16:20:06;;;;;;;7.90;7.00;;;;;;;20.00;100.00;99494.64;177773;1259;46406;-81
2023/08/27 16:24:10;;;;;;;7.70;6.30;;;;;;;19.94;100.00;99492.52;177420;1260;60117;-81
2023/08/27 16:28:14;;;;;;;7.30;6.50;;;;;;;19.87;100.00;99494.52;177880;1260;44947;-82
2023/08/27 16:32:18;;;;;;;7.30;6.00;;;;;;;19.88;100.00;99497.27;179277;1260;45289;-81
2023/08/27 16:36:21;;;;;;;12.60;8.40;;;;;;;19.88;100.00;99492.37;177386;1260;46055;-81
2023/08/27 16:40:36;;;;;;;9.80;7.10;;;;;;;19.95;100.00;99478.57;177416;1264;46186;-81
2023/08/27 16:44:39;;;;;;;9.10;8.00;;;;;;;20.06;100.00;99475.91;177620;1261;60139;-81
2023/08/27 16:48:43;;;;;;;9.40;7.70;;;;;;;20.15;100.00;99478.65;177789;1260;46134;-80
2023/08/27 16:52:48;;;;;;;11.20;9.20;;;;;;;20.28;100.00;99484.38;177629;1261;46115;-81
2023/08/27 16:56:51;;;;;;;9.80;8.10;;;;;;;20.28;100.00;99478.35;177903;1259;45946;-81
2023/08/27 17:00:55;;;;;;;8.20;7.00;;;;;;;20.28;100.00;99483.67;177523;1264;46012;-81
2023/08/27 17:05:01;;;;;;;13.00;7.30;;;;;;;20.19;100.00;99470.42;178842;1261;58345;-80
2023/08/27 17:09:05;;;;;;;9.00;8.10;;;;;;;20.03;100.00;99462.55;177185;1260;46011;-81
2023/08/27 17:13:08;;;;;;;12.10;8.30;;;;;;;19.89;100.00;99474.15;177111;1260;45926;-82
2023/08/27 17:17:13;;;;;;;11.40;8.50;;;;;;;19.77;100.00;99486.80;177427;1260;46120;-81
2023/08/27 17:21:16;;;;;;;11.30;8.50;;;;;;;19.83;100.00;99505.64;177384;1260;46192;-82
2023/08/27 17:25:20;;;;;;;9.80;8.80;;;;;;;19.94;100.00;99512.70;178352;1260;57976;-81
2023/08/27 17:29:24;;;;;;;14.10;10.10;;;;;;;20.05;100.00;99513.34;176811;1264;45990;-82
2023/08/27 17:33:27;;;;;;;11.80;9.90;;;;;;;20.16;100.00;99509.67;177121;1261;46039;-81
2023/08/27 17:37:31;;;;;;;10.10;9.00;;;;;;;20.15;100.00;99510.79;177133;1260;46179;-81
2023/08/27 17:41:47;;;;;;;14.90;10.70;;;;;;;20.07;100.00;99503.66;177171;1260;46029;-81
2023/08/27 17:45:51;;;;;;;12.60;9.90;;;;;;;20.02;100.00;99500.91;178207;1260;57757;-82
2023/08/27 17:49:55;;;;;;;11.10;9.10;;;;;;;20.08;100.00;99503.91;178110;1260;43890;-81
2023/08/27 17:53:59;;;;;;;9.90;8.90;;;;;;;20.12;100.00;99496.97;177507;1260;46213;-81
2023/08/27 17:58:03;;;;;;;7.70;6.70;;;;;;;20.13;100.00;99502.71;177259;1260;46166;-81
2023/08/27 18:02:07;;;;;;;7.80;6.40;;;;;;;20.13;100.00;99509.60;178033;1260;46149;-81
2023/08/27 18:06:11;;;;;;;10.40;7.30;;;;;;;20.20;100.00;99517.32;177302;1260;60053;-81
2023/08/27 18:10:14;;;;;;;7.50;6.60;;;;;;;20.24;100.00;99534.39;177419;1261;45889;-81
2023/08/27 18:14:18;;;;;;;8.20;7.30;;;;;;;20.26;100.00;99553.17;177504;1261;46100;-81
2023/08/27 18:18:24;;;;;;;8.10;6.90;;;;;;;20.26;100.00;99570.84;177844;1261;45986;-81
2023/08/27 18:22:28;;;;;;;9.70;7.20;;;;;;;20.29;100.00;99571.95;178225;1261;46093;-81
2023/08/27 18:26:31;;;;;;;9.20;6.90;;;;;;;20.08;100.00;99567.28;177706;1260;60051;-81
2023/08/27 18:30:36;;;;;;;9.60;7.30;;;;;;;19.81;100.00;99570.12;177140;1262;46045;-81
2023/08/27 18:34:39;;;;;;;7.50;6.20;;;;;;;19.69;100.00;99565.17;178146;1260;46054;-81
2023/08/27 18:38:43;;;;;;;7.40;5.50;;;;;;;19.50;100.00;99564.75;178682;1260;44733;-81
2023/08/27 18:42:46;;;;;;;8.80;6.20;;;;;;;19.45;100.00;99560.38;177558;1259;45990;-81